sensor_id;sensor_type;location;lat;lon;timestamp;P1;durP1;ratioP1;P2;durP2;ratioP2
10150;SDS011;5116;52.318;4.644;2022-08-23T00:01:42;1.37;;;1.27;;
10150;SDS011;5116;52.318;4.644;2022-08-23T00:04:13;1.30;;;1.20;;
10150;SDS011;5116;52.318;4.644;2022-08-23T00:06:45;1.60;;;1.40;;
10150;SDS011;5116;52.318;4.644;2022-08-23T00:09:13;1.03;;;1.03;;
10150;SDS011;5116;52.318;4.644;2022-08-23T00:11:43;1.50;;;1.40;;
10150;SDS011;5116;52.318;4.644;2022-08-23T00:14:21;1.50;;;1.40;;
10150;SDS011;5116;52.318;4.644;2022-08-23T00:16:49;1.70;;;1.40;;
10150;SDS011;5116;52.318;4.644;2022-08-23T00:19:17;1.30;;;1.20;;
10150;SDS011;5116;52.318;4.644;2022-08-23T00:21:45;1.20;;;1.10;;
10150;SDS011;5116;52.318;4.644;2022-08-23T00:24:14;2.00;;;1.20;;
10150;SDS011;5116;52.318;4.644;2022-08-23T00:26:48;1.63;;;1.53;;
10150;SDS011;5116;52.318;4.644;2022-08-23T00:29:16;1.40;;;1.23;;
10150;SDS011;5116;52.318;4.644;2022-08-23T00:31:44;1.50;;;1.40;;
10150;SDS011;5116;52.318;4.644;2022-08-23T00:34:11;1.50;;;1.37;;
10150;SDS011;5116;52.318;4.644;2022-08-23T00:36:39;1.47;;;1.30;;
10150;SDS011;5116;52.318;4.644;2022-08-23T00:39:07;1.40;;;1.30;;
10150;SDS011;5116;52.318;4.644;2022-08-23T00:41:34;1.73;;;1.50;;
10150;SDS011;5116;52.318;4.644;2022-08-23T00:44:02;1.47;;;1.37;;
10150;SDS011;5116;52.318;4.644;2022-08-23T00:46:50;1.60;;;1.17;;
10150;SDS011;5116;52.318;4.644;2022-08-23T00:49:38;1.27;;;1.20;;
10150;SDS011;5116;52.318;4.644;2022-08-23T00:52:10;1.13;;;1.03;;
10150;SDS011;5116;52.318;4.644;2022-08-23T00:54:39;1.40;;;1.30;;
10150;SDS011;5116;52.318;4.644;2022-08-23T00:57:09;1.20;;;1.10;;
10150;SDS011;5116;52.318;4.644;2022-08-23T00:59:37;1.20;;;1.20;;
10150;SDS011;5116;52.318;4.644;2022-08-23T01:02:05;1.33;;;1.20;;
10150;SDS011;5116;52.318;4.644;2022-08-23T01:04:36;1.73;;;1.27;;
10150;SDS011;5116;52.318;4.644;2022-08-23T01:07:22;1.40;;;1.30;;
10150;SDS011;5116;52.318;4.644;2022-08-23T01:09:52;1.30;;;1.20;;
10150;SDS011;5116;52.318;4.644;2022-08-23T01:12:23;1.40;;;1.30;;
10150;SDS011;5116;52.318;4.644;2022-08-23T01:15:09;1.40;;;1.30;;
10150;SDS011;5116;52.318;4.644;2022-08-23T01:17:39;1.40;;;1.30;;
10150;SDS011;5116;52.318;4.644;2022-08-23T01:20:10;1.07;;;1.07;;
10150;SDS011;5116;52.318;4.644;2022-08-23T01:25:25;2.37;;;1.40;;
10150;SDS011;5116;52.318;4.644;2022-08-23T01:27:53;1.23;;;1.20;;
10150;SDS011;5116;52.318;4.644;2022-08-23T01:30:23;1.60;;;1.30;;
10150;SDS011;5116;52.318;4.644;2022-08-23T01:32:57;1.63;;;1.30;;
10150;SDS011;5116;52.318;4.644;2022-08-23T01:38:03;1.07;;;1.07;;
10150;SDS011;5116;52.318;4.644;2022-08-23T01:40:30;1.50;;;1.30;;
10150;SDS011;5116;52.318;4.644;2022-08-23T01:42:58;1.73;;;1.30;;
10150;SDS011;5116;52.318;4.644;2022-08-23T01:45:28;2.07;;;1.40;;
10150;SDS011;5116;52.318;4.644;2022-08-23T01:47:56;1.40;;;1.30;;
10150;SDS011;5116;52.318;4.644;2022-08-23T01:50:25;1.40;;;1.30;;
10150;SDS011;5116;52.318;4.644;2022-08-23T01:52:53;1.40;;;1.30;;
10150;SDS011;5116;52.318;4.644;2022-08-23T01:55:22;2.73;;;1.57;;
10150;SDS011;5116;52.318;4.644;2022-08-23T01:57:51;1.00;;;1.00;;
10150;SDS011;5116;52.318;4.644;2022-08-23T02:00:20;1.77;;;1.40;;
10150;SDS011;5116;52.318;4.644;2022-08-23T02:02:48;1.33;;;1.23;;
10150;SDS011;5116;52.318;4.644;2022-08-23T02:05:15;1.40;;;1.30;;
10150;SDS011;5116;52.318;4.644;2022-08-23T02:07:45;1.80;;;1.20;;
10150;SDS011;5116;52.318;4.644;2022-08-23T02:10:16;1.57;;;1.47;;
10150;SDS011;5116;52.318;4.644;2022-08-23T02:12:43;1.33;;;1.23;;
10150;SDS011;5116;52.318;4.644;2022-08-23T02:15:14;1.00;;;1.00;;
10150;SDS011;5116;52.318;4.644;2022-08-23T02:17:45;1.30;;;1.20;;
10150;SDS011;5116;52.318;4.644;2022-08-23T02:20:12;1.30;;;1.20;;
10150;SDS011;5116;52.318;4.644;2022-08-23T02:22:40;1.33;;;1.27;;
10150;SDS011;5116;52.318;4.644;2022-08-23T02:25:08;1.30;;;1.20;;
10150;SDS011;5116;52.318;4.644;2022-08-23T02:27:35;1.40;;;1.30;;
10150;SDS011;5116;52.318;4.644;2022-08-23T02:30:10;1.67;;;1.30;;
10150;SDS011;5116;52.318;4.644;2022-08-23T02:32:38;1.40;;;1.30;;
10150;SDS011;5116;52.318;4.644;2022-08-23T02:35:05;1.83;;;1.30;;
10150;SDS011;5116;52.318;4.644;2022-08-23T02:37:33;1.70;;;1.43;;
10150;SDS011;5116;52.318;4.644;2022-08-23T02:40:03;1.50;;;1.40;;
10150;SDS011;5116;52.318;4.644;2022-08-23T02:42:31;1.30;;;1.20;;
10150;SDS011;5116;52.318;4.644;2022-08-23T02:44:59;1.17;;;1.13;;
10150;SDS011;5116;52.318;4.644;2022-08-23T02:47:27;1.50;;;1.27;;
10150;SDS011;5116;52.318;4.644;2022-08-23T02:50:18;1.60;;;1.50;;
10150;SDS011;5116;52.318;4.644;2022-08-23T02:52:46;1.40;;;1.30;;
10150;SDS011;5116;52.318;4.644;2022-08-23T02:55:13;1.50;;;1.10;;
10150;SDS011;5116;52.318;4.644;2022-08-23T02:57:40;1.70;;;1.53;;
10150;SDS011;5116;52.318;4.644;2022-08-23T03:00:10;1.10;;;1.10;;
10150;SDS011;5116;52.318;4.644;2022-08-23T03:02:39;1.30;;;1.20;;
10150;SDS011;5116;52.318;4.644;2022-08-23T03:05:07;1.40;;;1.30;;
10150;SDS011;5116;52.318;4.644;2022-08-23T03:07:35;1.70;;;1.60;;
10150;SDS011;5116;52.318;4.644;2022-08-23T03:10:03;1.60;;;1.50;;
10150;SDS011;5116;52.318;4.644;2022-08-23T03:12:33;1.40;;;1.30;;
10150;SDS011;5116;52.318;4.644;2022-08-23T03:15:01;1.30;;;1.20;;
10150;SDS011;5116;52.318;4.644;2022-08-23T03:17:31;1.60;;;1.30;;
10150;SDS011;5116;52.318;4.644;2022-08-23T03:19:59;1.30;;;1.20;;
10150;SDS011;5116;52.318;4.644;2022-08-23T03:22:27;1.57;;;1.47;;
10150;SDS011;5116;52.318;4.644;2022-08-23T03:24:54;1.63;;;1.53;;
10150;SDS011;5116;52.318;4.644;2022-08-23T03:27:30;1.50;;;1.40;;
10150;SDS011;5116;52.318;4.644;2022-08-23T03:30:05;1.40;;;1.30;;
10150;SDS011;5116;52.318;4.644;2022-08-23T03:32:48;1.60;;;1.50;;
10150;SDS011;5116;52.318;4.644;2022-08-23T03:35:16;1.60;;;1.50;;
10150;SDS011;5116;52.318;4.644;2022-08-23T03:37:44;1.40;;;1.30;;
10150;SDS011;5116;52.318;4.644;2022-08-23T03:40:12;1.50;;;1.40;;
10150;SDS011;5116;52.318;4.644;2022-08-23T03:42:39;1.50;;;1.40;;
10150;SDS011;5116;52.318;4.644;2022-08-23T03:45:07;1.90;;;1.40;;
10150;SDS011;5116;52.318;4.644;2022-08-23T03:47:34;1.50;;;1.40;;
10150;SDS011;5116;52.318;4.644;2022-08-23T03:50:02;1.30;;;1.20;;
10150;SDS011;5116;52.318;4.644;2022-08-23T03:52:31;2.27;;;1.47;;
10150;SDS011;5116;52.318;4.644;2022-08-23T03:54:58;1.63;;;1.37;;
10150;SDS011;5116;52.318;4.644;2022-08-23T03:57:28;1.50;;;1.40;;
10150;SDS011;5116;52.318;4.644;2022-08-23T03:59:57;1.80;;;1.50;;
10150;SDS011;5116;52.318;4.644;2022-08-23T04:02:27;1.47;;;1.20;;
10150;SDS011;5116;52.318;4.644;2022-08-23T04:04:54;1.33;;;1.23;;
10150;SDS011;5116;52.318;4.644;2022-08-23T04:07:37;2.13;;;1.40;;
10150;SDS011;5116;52.318;4.644;2022-08-23T04:10:06;1.93;;;1.70;;
10150;SDS011;5116;52.318;4.644;2022-08-23T04:12:36;1.83;;;1.60;;
10150;SDS011;5116;52.318;4.644;2022-08-23T04:15:10;1.43;;;1.33;;
10150;SDS011;5116;52.318;4.644;2022-08-23T04:17:40;1.87;;;1.53;;
10150;SDS011;5116;52.318;4.644;2022-08-23T04:20:08;1.50;;;1.37;;
10150;SDS011;5116;52.318;4.644;2022-08-23T04:22:50;1.50;;;1.40;;
10150;SDS011;5116;52.318;4.644;2022-08-23T04:25:18;1.73;;;1.43;;
10150;SDS011;5116;52.318;4.644;2022-08-23T04:28:00;1.40;;;1.30;;
10150;SDS011;5116;52.318;4.644;2022-08-23T04:30:29;1.47;;;1.37;;
10150;SDS011;5116;52.318;4.644;2022-08-23T04:32:56;1.53;;;1.43;;
10150;SDS011;5116;52.318;4.644;2022-08-23T04:35:24;1.37;;;1.20;;
10150;SDS011;5116;52.318;4.644;2022-08-23T04:37:52;1.57;;;1.47;;
10150;SDS011;5116;52.318;4.644;2022-08-23T04:40:20;1.50;;;1.40;;
10150;SDS011;5116;52.318;4.644;2022-08-23T04:43:07;1.63;;;1.53;;
10150;SDS011;5116;52.318;4.644;2022-08-23T04:45:39;1.50;;;1.40;;
10150;SDS011;5116;52.318;4.644;2022-08-23T04:48:13;1.83;;;1.30;;
10150;SDS011;5116;52.318;4.644;2022-08-23T04:50:45;1.97;;;1.40;;
10150;SDS011;5116;52.318;4.644;2022-08-23T04:53:16;1.60;;;1.50;;
10150;SDS011;5116;52.318;4.644;2022-08-23T04:55:54;1.60;;;1.50;;
10150;SDS011;5116;52.318;4.644;2022-08-23T04:58:21;2.50;;;1.50;;
10150;SDS011;5116;52.318;4.644;2022-08-23T05:00:50;2.40;;;1.83;;
10150;SDS011;5116;52.318;4.644;2022-08-23T05:03:23;2.63;;;1.60;;
10150;SDS011;5116;52.318;4.644;2022-08-23T05:05:51;1.70;;;1.60;;
10150;SDS011;5116;52.318;4.644;2022-08-23T05:08:26;2.20;;;1.43;;
10150;SDS011;5116;52.318;4.644;2022-08-23T05:10:53;1.90;;;1.80;;
10150;SDS011;5116;52.318;4.644;2022-08-23T05:13:21;1.77;;;1.67;;
10150;SDS011;5116;52.318;4.644;2022-08-23T05:15:49;2.10;;;1.67;;
10150;SDS011;5116;52.318;4.644;2022-08-23T05:18:20;1.70;;;1.60;;
10150;SDS011;5116;52.318;4.644;2022-08-23T05:20:49;1.70;;;1.60;;
10150;SDS011;5116;52.318;4.644;2022-08-23T05:23:17;2.17;;;1.60;;
10150;SDS011;5116;52.318;4.644;2022-08-23T05:25:54;1.97;;;1.70;;
10150;SDS011;5116;52.318;4.644;2022-08-23T05:28:29;1.70;;;1.60;;
10150;SDS011;5116;52.318;4.644;2022-08-23T05:30:59;1.50;;;1.40;;
10150;SDS011;5116;52.318;4.644;2022-08-23T05:33:31;1.60;;;1.50;;
10150;SDS011;5116;52.318;4.644;2022-08-23T05:35:58;1.60;;;1.50;;
10150;SDS011;5116;52.318;4.644;2022-08-23T05:38:28;1.67;;;1.57;;
10150;SDS011;5116;52.318;4.644;2022-08-23T05:40:57;1.83;;;1.63;;
10150;SDS011;5116;52.318;4.644;2022-08-23T05:43:31;1.60;;;1.50;;
10150;SDS011;5116;52.318;4.644;2022-08-23T05:46:03;1.73;;;1.60;;
10150;SDS011;5116;52.318;4.644;2022-08-23T05:48:40;2.00;;;1.63;;
10150;SDS011;5116;52.318;4.644;2022-08-23T05:53:39;1.57;;;1.47;;
10150;SDS011;5116;52.318;4.644;2022-08-23T05:58:51;1.57;;;1.47;;
10150;SDS011;5116;52.318;4.644;2022-08-23T06:01:25;1.80;;;1.50;;
10150;SDS011;5116;52.318;4.644;2022-08-23T06:04:00;2.00;;;1.73;;
10150;SDS011;5116;52.318;4.644;2022-08-23T06:06:28;1.63;;;1.53;;
10150;SDS011;5116;52.318;4.644;2022-08-23T06:09:03;1.90;;;1.80;;
10150;SDS011;5116;52.318;4.644;2022-08-23T06:11:30;2.13;;;1.70;;
10150;SDS011;5116;52.318;4.644;2022-08-23T06:13:59;1.70;;;1.60;;
10150;SDS011;5116;52.318;4.644;2022-08-23T06:16:33;1.70;;;1.60;;
10150;SDS011;5116;52.318;4.644;2022-08-23T06:19:02;1.60;;;1.50;;
10150;SDS011;5116;52.318;4.644;2022-08-23T06:21:55;2.67;;;2.47;;
10150;SDS011;5116;52.318;4.644;2022-08-23T06:24:30;2.37;;;1.97;;
10150;SDS011;5116;52.318;4.644;2022-08-23T06:27:10;1.87;;;1.70;;
10150;SDS011;5116;52.318;4.644;2022-08-23T06:29:39;2.10;;;1.90;;
10150;SDS011;5116;52.318;4.644;2022-08-23T06:32:29;3.57;;;3.13;;
10150;SDS011;5116;52.318;4.644;2022-08-23T06:35:15;2.40;;;2.20;;
10150;SDS011;5116;52.318;4.644;2022-08-23T06:38:07;1.97;;;1.87;;
10150;SDS011;5116;52.318;4.644;2022-08-23T06:40:43;2.83;;;2.63;;
10150;SDS011;5116;52.318;4.644;2022-08-23T06:43:23;2.20;;;1.90;;
10150;SDS011;5116;52.318;4.644;2022-08-23T06:46:12;3.57;;;2.47;;
10150;SDS011;5116;52.318;4.644;2022-08-23T06:48:42;2.90;;;2.47;;
10150;SDS011;5116;52.318;4.644;2022-08-23T06:51:14;2.07;;;1.83;;
10150;SDS011;5116;52.318;4.644;2022-08-23T06:54:09;2.30;;;2.10;;
10150;SDS011;5116;52.318;4.644;2022-08-23T06:56:50;3.87;;;2.57;;
10150;SDS011;5116;52.318;4.644;2022-08-23T06:59:24;2.93;;;2.50;;
10150;SDS011;5116;52.318;4.644;2022-08-23T07:02:11;4.00;;;2.13;;
10150;SDS011;5116;52.318;4.644;2022-08-23T07:05:03;3.67;;;2.73;;
10150;SDS011;5116;52.318;4.644;2022-08-23T07:07:48;2.03;;;1.77;;
10150;SDS011;5116;52.318;4.644;2022-08-23T07:10:16;1.73;;;1.63;;
10150;SDS011;5116;52.318;4.644;2022-08-23T07:12:44;2.60;;;2.00;;
10150;SDS011;5116;52.318;4.644;2022-08-23T07:15:11;3.47;;;3.07;;
10150;SDS011;5116;52.318;4.644;2022-08-23T07:17:42;2.63;;;1.87;;
10150;SDS011;5116;52.318;4.644;2022-08-23T07:20:10;2.50;;;2.30;;
10150;SDS011;5116;52.318;4.644;2022-08-23T07:22:40;2.40;;;2.17;;
10150;SDS011;5116;52.318;4.644;2022-08-23T07:25:10;2.93;;;1.80;;
10150;SDS011;5116;52.318;4.644;2022-08-23T07:27:38;1.97;;;1.87;;
10150;SDS011;5116;52.318;4.644;2022-08-23T07:30:07;2.10;;;1.83;;
10150;SDS011;5116;52.318;4.644;2022-08-23T07:32:38;2.50;;;2.30;;
10150;SDS011;5116;52.318;4.644;2022-08-23T07:35:16;2.00;;;1.80;;
10150;SDS011;5116;52.318;4.644;2022-08-23T07:37:47;2.53;;;2.13;;
10150;SDS011;5116;52.318;4.644;2022-08-23T07:40:15;3.53;;;2.70;;
10150;SDS011;5116;52.318;4.644;2022-08-23T07:42:50;2.63;;;2.13;;
10150;SDS011;5116;52.318;4.644;2022-08-23T07:45:19;1.70;;;1.60;;
10150;SDS011;5116;52.318;4.644;2022-08-23T07:47:52;2.23;;;2.03;;
10150;SDS011;5116;52.318;4.644;2022-08-23T07:50:21;1.70;;;1.60;;
10150;SDS011;5116;52.318;4.644;2022-08-23T07:52:49;2.10;;;1.90;;
10150;SDS011;5116;52.318;4.644;2022-08-23T07:55:16;2.40;;;2.20;;
10150;SDS011;5116;52.318;4.644;2022-08-23T07:58:02;1.87;;;1.77;;
10150;SDS011;5116;52.318;4.644;2022-08-23T08:00:30;1.70;;;1.60;;
10150;SDS011;5116;52.318;4.644;2022-08-23T08:03:11;1.77;;;1.67;;
10150;SDS011;5116;52.318;4.644;2022-08-23T08:06:04;1.87;;;1.73;;
10150;SDS011;5116;52.318;4.644;2022-08-23T08:08:32;1.90;;;1.80;;
10150;SDS011;5116;52.318;4.644;2022-08-23T08:10:59;2.00;;;1.80;;
10150;SDS011;5116;52.318;4.644;2022-08-23T08:13:27;3.83;;;1.83;;
10150;SDS011;5116;52.318;4.644;2022-08-23T08:15:55;2.00;;;1.77;;
10150;SDS011;5116;52.318;4.644;2022-08-23T08:18:26;1.70;;;1.40;;
10150;SDS011;5116;52.318;4.644;2022-08-23T08:21:14;1.80;;;1.70;;
10150;SDS011;5116;52.318;4.644;2022-08-23T08:23:58;1.77;;;1.60;;
10150;SDS011;5116;52.318;4.644;2022-08-23T08:26:45;1.60;;;1.50;;
10150;SDS011;5116;52.318;4.644;2022-08-23T08:29:13;1.30;;;1.20;;
10150;SDS011;5116;52.318;4.644;2022-08-23T08:31:43;1.20;;;1.10;;
10150;SDS011;5116;52.318;4.644;2022-08-23T08:34:11;1.57;;;1.47;;
10150;SDS011;5116;52.318;4.644;2022-08-23T08:39:16;1.53;;;1.43;;
10150;SDS011;5116;52.318;4.644;2022-08-23T08:44:40;1.60;;;1.50;;
10150;SDS011;5116;52.318;4.644;2022-08-23T08:47:13;1.50;;;1.40;;
10150;SDS011;5116;52.318;4.644;2022-08-23T08:49:43;1.53;;;1.43;;
10150;SDS011;5116;52.318;4.644;2022-08-23T08:54:40;1.40;;;1.30;;
10150;SDS011;5116;52.318;4.644;2022-08-23T08:57:14;1.83;;;1.20;;
10150;SDS011;5116;52.318;4.644;2022-08-23T08:59:46;1.53;;;1.43;;
10150;SDS011;5116;52.318;4.644;2022-08-23T09:02:18;1.40;;;1.30;;
10150;SDS011;5116;52.318;4.644;2022-08-23T09:05:01;1.40;;;1.30;;
10150;SDS011;5116;52.318;4.644;2022-08-23T09:07:38;1.60;;;1.50;;
10150;SDS011;5116;52.318;4.644;2022-08-23T09:18:50;1.30;;;1.20;;
10150;SDS011;5116;52.318;4.644;2022-08-23T09:21:20;1.40;;;1.30;;
10150;SDS011;5116;52.318;4.644;2022-08-23T09:23:49;1.73;;;1.47;;
10150;SDS011;5116;52.318;4.644;2022-08-23T09:26:37;1.30;;;1.23;;
10150;SDS011;5116;52.318;4.644;2022-08-23T09:29:15;1.30;;;1.20;;
10150;SDS011;5116;52.318;4.644;2022-08-23T09:31:46;1.23;;;1.13;;
10150;SDS011;5116;52.318;4.644;2022-08-23T09:34:18;1.00;;;1.00;;
10150;SDS011;5116;52.318;4.644;2022-08-23T09:39:41;1.60;;;1.43;;
10150;SDS011;5116;52.318;4.644;2022-08-23T09:45:06;1.37;;;1.27;;
10150;SDS011;5116;52.318;4.644;2022-08-23T09:47:50;1.80;;;1.10;;
10150;SDS011;5116;52.318;4.644;2022-08-23T09:50:25;1.90;;;1.40;;
10150;SDS011;5116;52.318;4.644;2022-08-23T09:53:03;1.40;;;1.30;;
10150;SDS011;5116;52.318;4.644;2022-08-23T09:55:34;1.23;;;1.10;;
10150;SDS011;5116;52.318;4.644;2022-08-23T09:58:02;1.27;;;1.13;;
10150;SDS011;5116;52.318;4.644;2022-08-23T10:00:34;1.23;;;1.20;;
10150;SDS011;5116;52.318;4.644;2022-08-23T10:05:53;1.10;;;1.10;;
10150;SDS011;5116;52.318;4.644;2022-08-23T10:08:23;0.97;;;0.97;;
10150;SDS011;5116;52.318;4.644;2022-08-23T10:13:41;0.93;;;0.93;;
10150;SDS011;5116;52.318;4.644;2022-08-23T10:19:18;1.10;;;1.10;;
10150;SDS011;5116;52.318;4.644;2022-08-23T10:27:10;1.47;;;1.37;;
10150;SDS011;5116;52.318;4.644;2022-08-23T10:30:04;1.10;;;1.10;;
10150;SDS011;5116;52.318;4.644;2022-08-23T10:32:44;1.07;;;1.03;;
10150;SDS011;5116;52.318;4.644;2022-08-23T10:35:22;1.33;;;1.23;;
10150;SDS011;5116;52.318;4.644;2022-08-23T10:42:57;1.20;;;1.10;;
10150;SDS011;5116;52.318;4.644;2022-08-23T10:45:31;1.33;;;1.23;;
10150;SDS011;5116;52.318;4.644;2022-08-23T10:50:43;2.83;;;1.17;;
10150;SDS011;5116;52.318;4.644;2022-08-23T10:53:22;1.33;;;1.10;;
10150;SDS011;5116;52.318;4.644;2022-08-23T10:55:51;1.77;;;1.30;;
10150;SDS011;5116;52.318;4.644;2022-08-23T10:58:37;1.27;;;1.17;;
10150;SDS011;5116;52.318;4.644;2022-08-23T11:01:07;2.40;;;1.40;;
10150;SDS011;5116;52.318;4.644;2022-08-23T11:04:19;1.70;;;1.60;;
10150;SDS011;5116;52.318;4.644;2022-08-23T11:11:36;1.50;;;1.40;;
10150;SDS011;5116;52.318;4.644;2022-08-23T11:14:06;1.03;;;1.03;;
10150;SDS011;5116;52.318;4.644;2022-08-23T11:16:34;1.20;;;1.10;;
10150;SDS011;5116;52.318;4.644;2022-08-23T11:19:04;0.97;;;0.97;;
10150;SDS011;5116;52.318;4.644;2022-08-23T11:21:42;1.27;;;1.17;;
10150;SDS011;5116;52.318;4.644;2022-08-23T11:34:41;1.10;;;1.07;;
10150;SDS011;5116;52.318;4.644;2022-08-23T11:56:04;1.30;;;1.20;;
10150;SDS011;5116;52.318;4.644;2022-08-23T12:01:10;1.53;;;1.20;;
10150;SDS011;5116;52.318;4.644;2022-08-23T12:03:55;1.07;;;1.07;;
10150;SDS011;5116;52.318;4.644;2022-08-23T12:16:58;1.07;;;1.07;;
10150;SDS011;5116;52.318;4.644;2022-08-23T12:19:33;1.10;;;1.10;;
10150;SDS011;5116;52.318;4.644;2022-08-23T12:22:13;1.30;;;1.20;;
10150;SDS011;5116;52.318;4.644;2022-08-23T12:29:56;1.30;;;1.20;;
10150;SDS011;5116;52.318;4.644;2022-08-23T12:35:02;1.17;;;1.10;;
10150;SDS011;5116;52.318;4.644;2022-08-23T12:37:34;1.20;;;1.10;;
10150;SDS011;5116;52.318;4.644;2022-08-23T12:40:06;1.17;;;1.13;;
10150;SDS011;5116;52.318;4.644;2022-08-23T12:42:35;1.13;;;1.03;;
10150;SDS011;5116;52.318;4.644;2022-08-23T12:45:17;1.33;;;1.00;;
10150;SDS011;5116;52.318;4.644;2022-08-23T12:47:55;1.10;;;1.10;;
10150;SDS011;5116;52.318;4.644;2022-08-23T12:50:25;1.10;;;1.10;;
10150;SDS011;5116;52.318;4.644;2022-08-23T12:52:59;1.10;;;1.10;;
10150;SDS011;5116;52.318;4.644;2022-08-23T12:55:30;1.17;;;1.10;;
10150;SDS011;5116;52.318;4.644;2022-08-23T12:57:57;1.20;;;1.10;;
10150;SDS011;5116;52.318;4.644;2022-08-23T13:03:12;1.30;;;1.20;;
10150;SDS011;5116;52.318;4.644;2022-08-23T13:05:42;1.07;;;1.07;;
10150;SDS011;5116;52.318;4.644;2022-08-23T13:08:56;1.40;;;1.30;;
10150;SDS011;5116;52.318;4.644;2022-08-23T13:11:03;1.10;;;1.10;;
10150;SDS011;5116;52.318;4.644;2022-08-23T13:13:36;1.20;;;1.10;;
10150;SDS011;5116;52.318;4.644;2022-08-23T13:18:53;1.40;;;1.30;;
10150;SDS011;5116;52.318;4.644;2022-08-23T13:23:53;1.10;;;1.10;;
10150;SDS011;5116;52.318;4.644;2022-08-23T13:26:26;0.93;;;0.93;;
10150;SDS011;5116;52.318;4.644;2022-08-23T13:34:32;1.17;;;1.00;;
10150;SDS011;5116;52.318;4.644;2022-08-23T13:37:02;1.10;;;1.10;;
10150;SDS011;5116;52.318;4.644;2022-08-23T13:39:30;1.17;;;1.07;;
10150;SDS011;5116;52.318;4.644;2022-08-23T13:41:58;1.10;;;1.10;;
10150;SDS011;5116;52.318;4.644;2022-08-23T13:44:26;1.00;;;1.00;;
10150;SDS011;5116;52.318;4.644;2022-08-23T13:46:53;1.30;;;1.20;;
10150;SDS011;5116;52.318;4.644;2022-08-23T13:49:21;1.40;;;1.30;;
10150;SDS011;5116;52.318;4.644;2022-08-23T13:54:45;1.50;;;1.40;;
10150;SDS011;5116;52.318;4.644;2022-08-23T13:57:18;1.27;;;1.17;;
10150;SDS011;5116;52.318;4.644;2022-08-23T13:59:47;1.43;;;1.30;;
10150;SDS011;5116;52.318;4.644;2022-08-23T14:02:16;1.10;;;1.10;;
10150;SDS011;5116;52.318;4.644;2022-08-23T14:04:44;1.37;;;1.27;;
10150;SDS011;5116;52.318;4.644;2022-08-23T14:07:12;1.33;;;1.23;;
10150;SDS011;5116;52.318;4.644;2022-08-23T14:09:40;1.40;;;1.30;;
10150;SDS011;5116;52.318;4.644;2022-08-23T14:12:10;1.97;;;1.40;;
10150;SDS011;5116;52.318;4.644;2022-08-23T14:14:38;1.30;;;1.20;;
10150;SDS011;5116;52.318;4.644;2022-08-23T14:17:06;1.30;;;1.20;;
10150;SDS011;5116;52.318;4.644;2022-08-23T14:19:38;1.47;;;1.37;;
10150;SDS011;5116;52.318;4.644;2022-08-23T14:22:25;1.47;;;1.23;;
10150;SDS011;5116;52.318;4.644;2022-08-23T14:24:53;1.40;;;1.17;;
10150;SDS011;5116;52.318;4.644;2022-08-23T14:27:20;1.40;;;1.30;;
10150;SDS011;5116;52.318;4.644;2022-08-23T14:29:47;1.57;;;1.33;;
10150;SDS011;5116;52.318;4.644;2022-08-23T14:32:15;1.33;;;1.23;;
10150;SDS011;5116;52.318;4.644;2022-08-23T14:34:42;1.50;;;1.30;;
10150;SDS011;5116;52.318;4.644;2022-08-23T14:37:09;1.40;;;1.30;;
10150;SDS011;5116;52.318;4.644;2022-08-23T14:39:57;1.40;;;1.30;;
10150;SDS011;5116;52.318;4.644;2022-08-23T14:42:24;1.50;;;1.40;;
10150;SDS011;5116;52.318;4.644;2022-08-23T14:44:52;1.40;;;1.20;;
10150;SDS011;5116;52.318;4.644;2022-08-23T14:47:19;1.67;;;1.50;;
10150;SDS011;5116;52.318;4.644;2022-08-23T14:49:46;1.40;;;1.30;;
10150;SDS011;5116;52.318;4.644;2022-08-23T14:52:19;1.67;;;1.57;;
10150;SDS011;5116;52.318;4.644;2022-08-23T14:54:47;1.67;;;1.57;;
10150;SDS011;5116;52.318;4.644;2022-08-23T14:57:15;1.60;;;1.50;;
10150;SDS011;5116;52.318;4.644;2022-08-23T14:59:42;2.80;;;1.30;;
10150;SDS011;5116;52.318;4.644;2022-08-23T15:02:10;1.20;;;1.20;;
10150;SDS011;5116;52.318;4.644;2022-08-23T15:04:39;1.70;;;1.40;;
10150;SDS011;5116;52.318;4.644;2022-08-23T15:07:07;1.30;;;1.20;;
10150;SDS011;5116;52.318;4.644;2022-08-23T15:09:45;1.90;;;1.40;;
10150;SDS011;5116;52.318;4.644;2022-08-23T15:12:13;1.30;;;1.20;;
10150;SDS011;5116;52.318;4.644;2022-08-23T15:15:01;1.40;;;1.30;;
10150;SDS011;5116;52.318;4.644;2022-08-23T15:17:28;1.30;;;1.20;;
10150;SDS011;5116;52.318;4.644;2022-08-23T15:19:57;1.37;;;1.10;;
10150;SDS011;5116;52.318;4.644;2022-08-23T15:22:24;1.30;;;1.20;;
10150;SDS011;5116;52.318;4.644;2022-08-23T15:24:52;1.10;;;1.10;;
10150;SDS011;5116;52.318;4.644;2022-08-23T15:27:19;1.17;;;1.10;;
10150;SDS011;5116;52.318;4.644;2022-08-23T15:29:47;1.00;;;1.00;;
10150;SDS011;5116;52.318;4.644;2022-08-23T15:32:14;1.40;;;1.30;;
10150;SDS011;5116;52.318;4.644;2022-08-23T15:34:48;1.30;;;1.20;;
10150;SDS011;5116;52.318;4.644;2022-08-23T15:37:17;1.40;;;1.30;;
10150;SDS011;5116;52.318;4.644;2022-08-23T15:39:46;1.20;;;1.10;;
10150;SDS011;5116;52.318;4.644;2022-08-23T15:42:13;1.50;;;1.40;;
10150;SDS011;5116;52.318;4.644;2022-08-23T15:44:46;1.40;;;1.30;;
10150;SDS011;5116;52.318;4.644;2022-08-23T15:47:21;1.50;;;1.40;;
10150;SDS011;5116;52.318;4.644;2022-08-23T15:49:49;1.30;;;1.20;;
10150;SDS011;5116;52.318;4.644;2022-08-23T15:52:17;1.47;;;1.37;;
10150;SDS011;5116;52.318;4.644;2022-08-23T15:54:45;1.73;;;1.40;;
10150;SDS011;5116;52.318;4.644;2022-08-23T15:57:17;1.10;;;1.10;;
10150;SDS011;5116;52.318;4.644;2022-08-23T15:59:46;1.47;;;1.37;;
10150;SDS011;5116;52.318;4.644;2022-08-23T16:02:13;1.83;;;1.20;;
10150;SDS011;5116;52.318;4.644;2022-08-23T16:04:41;1.50;;;1.40;;
10150;SDS011;5116;52.318;4.644;2022-08-23T16:07:09;1.20;;;1.10;;
10150;SDS011;5116;52.318;4.644;2022-08-23T16:09:38;1.20;;;1.20;;
10150;SDS011;5116;52.318;4.644;2022-08-23T16:12:06;1.20;;;1.10;;
10150;SDS011;5116;52.318;4.644;2022-08-23T16:14:34;1.20;;;1.10;;
10150;SDS011;5116;52.318;4.644;2022-08-23T16:17:01;1.00;;;1.00;;
10150;SDS011;5116;52.318;4.644;2022-08-23T16:19:29;1.77;;;1.20;;
10150;SDS011;5116;52.318;4.644;2022-08-23T16:21:58;1.00;;;1.00;;
10150;SDS011;5116;52.318;4.644;2022-08-23T16:24:25;1.10;;;1.00;;
10150;SDS011;5116;52.318;4.644;2022-08-23T16:26:53;0.97;;;0.97;;
10150;SDS011;5116;52.318;4.644;2022-08-23T16:29:21;0.90;;;0.90;;
10150;SDS011;5116;52.318;4.644;2022-08-23T16:31:48;1.10;;;1.10;;
10150;SDS011;5116;52.318;4.644;2022-08-23T16:34:18;1.17;;;1.17;;
10150;SDS011;5116;52.318;4.644;2022-08-23T16:36:46;1.00;;;1.00;;
10150;SDS011;5116;52.318;4.644;2022-08-23T16:39:16;1.20;;;1.10;;
10150;SDS011;5116;52.318;4.644;2022-08-23T16:41:43;1.00;;;1.00;;
10150;SDS011;5116;52.318;4.644;2022-08-23T16:44:11;0.83;;;0.83;;
10150;SDS011;5116;52.318;4.644;2022-08-23T16:46:38;2.20;;;1.20;;
10150;SDS011;5116;52.318;4.644;2022-08-23T16:49:08;1.20;;;1.10;;
10150;SDS011;5116;52.318;4.644;2022-08-23T16:51:36;1.17;;;1.17;;
10150;SDS011;5116;52.318;4.644;2022-08-23T16:54:03;1.10;;;1.10;;
10150;SDS011;5116;52.318;4.644;2022-08-23T16:56:31;0.97;;;0.97;;
10150;SDS011;5116;52.318;4.644;2022-08-23T16:58:59;1.17;;;1.07;;
10150;SDS011;5116;52.318;4.644;2022-08-23T17:01:27;0.90;;;0.90;;
10150;SDS011;5116;52.318;4.644;2022-08-23T17:03:55;1.00;;;1.00;;
10150;SDS011;5116;52.318;4.644;2022-08-23T17:06:23;0.83;;;0.83;;
10150;SDS011;5116;52.318;4.644;2022-08-23T17:08:50;0.90;;;0.90;;
10150;SDS011;5116;52.318;4.644;2022-08-23T17:11:18;0.90;;;0.90;;
10150;SDS011;5116;52.318;4.644;2022-08-23T17:13:46;0.90;;;0.90;;
10150;SDS011;5116;52.318;4.644;2022-08-23T17:16:13;1.47;;;1.37;;
10150;SDS011;5116;52.318;4.644;2022-08-23T17:18:41;0.97;;;0.97;;
10150;SDS011;5116;52.318;4.644;2022-08-23T17:21:09;1.77;;;1.20;;
10150;SDS011;5116;52.318;4.644;2022-08-23T17:23:37;1.23;;;1.20;;
10150;SDS011;5116;52.318;4.644;2022-08-23T17:26:06;1.07;;;1.07;;
10150;SDS011;5116;52.318;4.644;2022-08-23T17:28:34;1.17;;;1.07;;
10150;SDS011;5116;52.318;4.644;2022-08-23T17:31:02;1.23;;;1.13;;
10150;SDS011;5116;52.318;4.644;2022-08-23T17:33:29;0.90;;;0.90;;